Huvudsida
METAR-TAF:

METAR-TAF

Flygplatser :

Umeå Airport

Umeå, Sverige

latitud: 63-48N, longitud: 020-17E, höjd: 7 m

Aktuellt väderrapport

Denna rapport gjordes för 14 minuter sedan, klockan 05:50 UTC
Vind 4 kt från syd/sydost
Temperatur 5°C
Fuktighet 100%
Tryck 1022 hPa
Sikt: 0200 m
dimma

METAR: ESNU 160550Z AUTO 15004KT 0200 R14/0800V1000U R32/0700N FG OVC001/// 05/05 Q1022 R14/19//60

Tid: 07:04 (06:04 UTC)

Väderprognos

Denna rapport gjordes för 34 minuter sedan, klockan 05:30 UTC
Prognos gäller från 16 kl. 06 UTC till 16 kl. 15 UTC
Vind 5 kt från syd
Sikt: 0300 m
på en höjd av 200 ft
dimma
Sannolikhet 40%
från 16 kl. 06 UTC till 16 kl. 09 UTC
Sikt: 2000 m
fuktdis
Blir
från 16 kl. 09 UTC till 16 kl. 11 UTC
Sikt: 7000 m
Få moln på en höjd av 500 ft

TAF: ESNU 160530Z 1606/1615 18005KT 0300 FG VV002 PROB40 1606/1609 2000 BR BECMG 1609/1611 7000 NSW FEW005

Aktuella väderrapporter och prognoser från 4000 flygplatser (METAR- och TAF-rapporter).

De tillgängliga stationerna syns som gula och röda prickar på kartan.

För musen över prickarna för att se namnen på stationerna.

Klicka sedan för att få väderrapporter och prognoser.

För att ändra kartan: Klicka på de gröna knapparna med ett svart kors på för att zooma in; den gröna knappen med ett streck på för att zooma ut; eller på de gröna pilarna för angränsande kartor.


METAR-TAF: